sensor_id;sensor_type;location;lat;lon;timestamp;P1;durP1;ratioP1;P2;durP2;ratioP2
47531;SDS011;33273;52.254;7.988;2023-04-01T00:01:49;8.48;;;6.22;;
47531;SDS011;33273;52.254;7.988;2023-04-01T00:04:39;9.13;;;5.90;;
47531;SDS011;33273;52.254;7.988;2023-04-01T00:07:07;8.43;;;5.70;;
47531;SDS011;33273;52.254;7.988;2023-04-01T00:09:34;8.88;;;5.43;;
47531;SDS011;33273;52.254;7.988;2023-04-01T00:12:00;8.93;;;5.73;;
47531;SDS011;33273;52.254;7.988;2023-04-01T00:14:29;8.52;;;5.35;;
47531;SDS011;33273;52.254;7.988;2023-04-01T00:16:55;8.52;;;4.88;;
47531;SDS011;33273;52.254;7.988;2023-04-01T00:19:27;12.02;;;6.82;;
47531;SDS011;33273;52.254;7.988;2023-04-01T00:21:53;8.35;;;5.82;;
47531;SDS011;33273;52.254;7.988;2023-04-01T00:24:19;9.18;;;5.57;;
47531;SDS011;33273;52.254;7.988;2023-04-01T00:26:45;9.40;;;6.05;;
47531;SDS011;33273;52.254;7.988;2023-04-01T00:29:13;8.25;;;5.60;;
47531;SDS011;33273;52.254;7.988;2023-04-01T00:31:39;10.35;;;6.20;;
47531;SDS011;33273;52.254;7.988;2023-04-01T00:34:05;8.73;;;5.45;;
47531;SDS011;33273;52.254;7.988;2023-04-01T00:36:32;9.13;;;5.63;;
47531;SDS011;33273;52.254;7.988;2023-04-01T00:38:58;9.93;;;5.80;;
47531;SDS011;33273;52.254;7.988;2023-04-01T00:41:25;9.63;;;5.93;;
47531;SDS011;33273;52.254;7.988;2023-04-01T00:43:51;9.35;;;6.13;;
47531;SDS011;33273;52.254;7.988;2023-04-01T00:46:18;7.40;;;5.03;;
47531;SDS011;33273;52.254;7.988;2023-04-01T00:48:46;7.47;;;5.32;;
47531;SDS011;33273;52.254;7.988;2023-04-01T00:51:22;7.65;;;5.38;;
47531;SDS011;33273;52.254;7.988;2023-04-01T00:53:51;7.63;;;5.22;;
47531;SDS011;33273;52.254;7.988;2023-04-01T00:56:54;6.93;;;5.43;;
47531;SDS011;33273;52.254;7.988;2023-04-01T00:59:22;8.52;;;5.43;;
47531;SDS011;33273;52.254;7.988;2023-04-01T01:01:54;8.43;;;5.28;;
47531;SDS011;33273;52.254;7.988;2023-04-01T01:07:06;10.97;;;6.07;;
47531;SDS011;33273;52.254;7.988;2023-04-01T01:09:57;7.25;;;5.50;;
47531;SDS011;33273;52.254;7.988;2023-04-01T01:12:53;9.55;;;5.20;;
47531;SDS011;33273;52.254;7.988;2023-04-01T01:21:30;9.65;;;6.40;;
47531;SDS011;33273;52.254;7.988;2023-04-01T01:26:46;11.53;;;7.17;;
47531;SDS011;33273;52.254;7.988;2023-04-01T01:30:00;9.52;;;6.22;;
47531;SDS011;33273;52.254;7.988;2023-04-01T01:32:19;10.88;;;6.68;;
47531;SDS011;33273;52.254;7.988;2023-04-01T01:37:36;9.02;;;5.88;;
47531;SDS011;33273;52.254;7.988;2023-04-01T01:40:09;9.27;;;5.63;;
47531;SDS011;33273;52.254;7.988;2023-04-01T01:42:52;8.18;;;5.75;;
47531;SDS011;33273;52.254;7.988;2023-04-01T01:45:30;8.23;;;5.57;;
47531;SDS011;33273;52.254;7.988;2023-04-01T01:48:01;9.32;;;5.78;;
47531;SDS011;33273;52.254;7.988;2023-04-01T01:50:30;6.22;;;4.60;;
47531;SDS011;33273;52.254;7.988;2023-04-01T01:53:02;8.60;;;4.88;;
47531;SDS011;33273;52.254;7.988;2023-04-01T01:55:34;6.90;;;5.00;;
47531;SDS011;33273;52.254;7.988;2023-04-01T01:58:05;8.90;;;5.30;;
47531;SDS011;33273;52.254;7.988;2023-04-01T02:00:48;7.25;;;4.60;;
47531;SDS011;33273;52.254;7.988;2023-04-01T02:03:33;8.35;;;4.93;;
47531;SDS011;33273;52.254;7.988;2023-04-01T02:06:03;8.48;;;5.18;;
47531;SDS011;33273;52.254;7.988;2023-04-01T02:08:52;9.80;;;5.22;;
47531;SDS011;33273;52.254;7.988;2023-04-01T02:11:24;5.18;;;3.78;;
47531;SDS011;33273;52.254;7.988;2023-04-01T02:14:00;5.18;;;4.05;;
47531;SDS011;33273;52.254;7.988;2023-04-01T02:16:36;6.40;;;4.28;;
47531;SDS011;33273;52.254;7.988;2023-04-01T02:19:43;5.65;;;3.72;;
47531;SDS011;33273;52.254;7.988;2023-04-01T02:22:35;6.38;;;3.85;;
47531;SDS011;33273;52.254;7.988;2023-04-01T02:25:09;5.20;;;3.30;;
47531;SDS011;33273;52.254;7.988;2023-04-01T02:27:44;5.90;;;2.97;;
47531;SDS011;33273;52.254;7.988;2023-04-01T02:30:13;4.55;;;3.30;;
47531;SDS011;33273;52.254;7.988;2023-04-01T02:32:45;5.70;;;3.28;;
47531;SDS011;33273;52.254;7.988;2023-04-01T02:35:13;4.30;;;3.05;;
47531;SDS011;33273;52.254;7.988;2023-04-01T02:37:42;5.88;;;3.10;;
47531;SDS011;33273;52.254;7.988;2023-04-01T02:40:13;4.78;;;3.47;;
47531;SDS011;33273;52.254;7.988;2023-04-01T02:42:41;4.65;;;3.40;;
47531;SDS011;33273;52.254;7.988;2023-04-01T02:45:07;5.68;;;3.03;;
47531;SDS011;33273;52.254;7.988;2023-04-01T02:47:34;5.40;;;4.05;;
47531;SDS011;33273;52.254;7.988;2023-04-01T02:50:01;8.80;;;4.43;;
47531;SDS011;33273;52.254;7.988;2023-04-01T02:52:27;7.28;;;3.75;;
47531;SDS011;33273;52.254;7.988;2023-04-01T02:54:56;6.38;;;3.78;;
47531;SDS011;33273;52.254;7.988;2023-04-01T02:57:22;6.93;;;3.88;;
47531;SDS011;33273;52.254;7.988;2023-04-01T03:02:15;6.30;;;4.40;;
47531;SDS011;33273;52.254;7.988;2023-04-01T03:07:08;6.45;;;5.15;;
47531;SDS011;33273;52.254;7.988;2023-04-01T03:09:35;8.27;;;4.22;;
47531;SDS011;33273;52.254;7.988;2023-04-01T03:12:02;6.60;;;4.53;;
47531;SDS011;33273;52.254;7.988;2023-04-01T03:14:32;9.15;;;4.68;;
47531;SDS011;33273;52.254;7.988;2023-04-01T03:16:58;9.55;;;4.40;;
47531;SDS011;33273;52.254;7.988;2023-04-01T03:19:24;5.63;;;4.30;;
47531;SDS011;33273;52.254;7.988;2023-04-01T03:21:50;5.70;;;3.77;;
47531;SDS011;33273;52.254;7.988;2023-04-01T03:24:16;5.65;;;3.85;;
47531;SDS011;33273;52.254;7.988;2023-04-01T03:26:42;6.33;;;4.13;;
47531;SDS011;33273;52.254;7.988;2023-04-01T03:29:08;6.72;;;4.13;;
47531;SDS011;33273;52.254;7.988;2023-04-01T03:31:34;6.47;;;4.13;;
47531;SDS011;33273;52.254;7.988;2023-04-01T03:34:01;5.93;;;3.85;;
47531;SDS011;33273;52.254;7.988;2023-04-01T03:36:27;6.22;;;3.92;;
47531;SDS011;33273;52.254;7.988;2023-04-01T03:38:53;5.93;;;4.13;;
47531;SDS011;33273;52.254;7.988;2023-04-01T03:41:28;4.75;;;3.22;;
47531;SDS011;33273;52.254;7.988;2023-04-01T03:43:56;5.88;;;3.53;;
47531;SDS011;33273;52.254;7.988;2023-04-01T03:46:22;4.75;;;3.20;;
47531;SDS011;33273;52.254;7.988;2023-04-01T03:48:48;4.32;;;3.03;;
47531;SDS011;33273;52.254;7.988;2023-04-01T03:51:17;5.10;;;3.10;;
47531;SDS011;33273;52.254;7.988;2023-04-01T03:53:43;4.05;;;2.85;;
47531;SDS011;33273;52.254;7.988;2023-04-01T03:56:09;4.00;;;2.70;;
47531;SDS011;33273;52.254;7.988;2023-04-01T03:58:35;3.75;;;2.70;;
47531;SDS011;33273;52.254;7.988;2023-04-01T04:01:03;6.13;;;2.95;;
47531;SDS011;33273;52.254;7.988;2023-04-01T04:03:48;4.53;;;2.90;;
47531;SDS011;33273;52.254;7.988;2023-04-01T04:06:15;4.22;;;2.78;;
47531;SDS011;33273;52.254;7.988;2023-04-01T04:08:43;5.60;;;3.28;;
47531;SDS011;33273;52.254;7.988;2023-04-01T04:11:10;3.95;;;2.88;;
47531;SDS011;33273;52.254;7.988;2023-04-01T04:13:41;3.83;;;2.63;;
47531;SDS011;33273;52.254;7.988;2023-04-01T04:16:08;3.67;;;2.75;;
47531;SDS011;33273;52.254;7.988;2023-04-01T04:18:39;3.67;;;2.65;;
47531;SDS011;33273;52.254;7.988;2023-04-01T04:21:05;4.25;;;3.08;;
47531;SDS011;33273;52.254;7.988;2023-04-01T04:23:31;4.60;;;2.50;;
47531;SDS011;33273;52.254;7.988;2023-04-01T04:26:06;5.10;;;2.83;;
47531;SDS011;33273;52.254;7.988;2023-04-01T04:28:34;3.13;;;2.10;;
47531;SDS011;33273;52.254;7.988;2023-04-01T04:31:03;3.55;;;2.25;;
47531;SDS011;33273;52.254;7.988;2023-04-01T04:33:34;3.70;;;2.60;;
47531;SDS011;33273;52.254;7.988;2023-04-01T04:36:02;3.50;;;2.30;;
47531;SDS011;33273;52.254;7.988;2023-04-01T04:38:32;3.10;;;2.13;;
47531;SDS011;33273;52.254;7.988;2023-04-01T04:40:58;3.63;;;2.10;;
47531;SDS011;33273;52.254;7.988;2023-04-01T04:43:27;3.03;;;2.10;;
47531;SDS011;33273;52.254;7.988;2023-04-01T04:45:55;3.03;;;1.85;;
47531;SDS011;33273;52.254;7.988;2023-04-01T04:48:21;3.42;;;2.42;;
47531;SDS011;33273;52.254;7.988;2023-04-01T04:50:48;4.78;;;2.17;;
47531;SDS011;33273;52.254;7.988;2023-04-01T04:53:17;4.82;;;2.55;;
47531;SDS011;33273;52.254;7.988;2023-04-01T04:55:49;2.70;;;1.83;;
47531;SDS011;33273;52.254;7.988;2023-04-01T04:58:31;3.15;;;2.13;;
47531;SDS011;33273;52.254;7.988;2023-04-01T05:01:08;4.40;;;2.25;;
47531;SDS011;33273;52.254;7.988;2023-04-01T05:03:37;3.50;;;2.22;;
47531;SDS011;33273;52.254;7.988;2023-04-01T05:06:05;2.95;;;2.05;;
47531;SDS011;33273;52.254;7.988;2023-04-01T05:08:31;3.25;;;2.13;;
47531;SDS011;33273;52.254;7.988;2023-04-01T05:10:59;3.58;;;2.22;;
47531;SDS011;33273;52.254;7.988;2023-04-01T05:13:28;3.70;;;2.20;;
47531;SDS011;33273;52.254;7.988;2023-04-01T05:15:54;2.72;;;1.80;;
47531;SDS011;33273;52.254;7.988;2023-04-01T05:18:21;4.25;;;2.33;;
47531;SDS011;33273;52.254;7.988;2023-04-01T05:20:48;4.78;;;1.98;;
47531;SDS011;33273;52.254;7.988;2023-04-01T05:23:15;3.20;;;2.10;;
47531;SDS011;33273;52.254;7.988;2023-04-01T05:25:42;5.55;;;1.98;;
47531;SDS011;33273;52.254;7.988;2023-04-01T05:28:10;3.00;;;2.20;;
47531;SDS011;33273;52.254;7.988;2023-04-01T05:30:41;4.47;;;1.90;;
47531;SDS011;33273;52.254;7.988;2023-04-01T05:33:22;3.63;;;2.10;;
47531;SDS011;33273;52.254;7.988;2023-04-01T05:35:51;4.57;;;1.92;;
47531;SDS011;33273;52.254;7.988;2023-04-01T05:38:17;3.72;;;2.35;;
47531;SDS011;33273;52.254;7.988;2023-04-01T05:40:43;3.60;;;2.63;;
47531;SDS011;33273;52.254;7.988;2023-04-01T05:43:09;5.32;;;2.78;;
47531;SDS011;33273;52.254;7.988;2023-04-01T05:45:35;8.57;;;3.20;;
47531;SDS011;33273;52.254;7.988;2023-04-01T05:48:14;5.43;;;3.10;;
47531;SDS011;33273;52.254;7.988;2023-04-01T05:50:43;5.05;;;3.15;;
47531;SDS011;33273;52.254;7.988;2023-04-01T05:53:10;5.13;;;3.53;;
47531;SDS011;33273;52.254;7.988;2023-04-01T05:55:38;5.35;;;3.75;;
47531;SDS011;33273;52.254;7.988;2023-04-01T05:58:04;6.35;;;4.88;;
47531;SDS011;33273;52.254;7.988;2023-04-01T06:00:34;6.43;;;4.95;;
47531;SDS011;33273;52.254;7.988;2023-04-01T06:03:00;7.87;;;4.87;;
47531;SDS011;33273;52.254;7.988;2023-04-01T06:05:30;7.40;;;5.15;;
47531;SDS011;33273;52.254;7.988;2023-04-01T06:08:05;7.10;;;5.68;;
47531;SDS011;33273;52.254;7.988;2023-04-01T06:13:26;6.88;;;5.20;;
47531;SDS011;33273;52.254;7.988;2023-04-01T06:30:02;5.72;;;4.80;;
47531;SDS011;33273;52.254;7.988;2023-04-01T06:40:46;6.53;;;4.38;;
47531;SDS011;33273;52.254;7.988;2023-04-01T06:43:48;5.50;;;4.00;;
47531;SDS011;33273;52.254;7.988;2023-04-01T06:52:50;6.85;;;4.13;;
47531;SDS011;33273;52.254;7.988;2023-04-01T06:55:51;4.88;;;3.85;;
47531;SDS011;33273;52.254;7.988;2023-04-01T06:58:51;5.43;;;3.92;;
47531;SDS011;33273;52.254;7.988;2023-04-01T07:01:21;5.65;;;3.70;;
47531;SDS011;33273;52.254;7.988;2023-04-01T07:03:55;5.63;;;3.65;;
47531;SDS011;33273;52.254;7.988;2023-04-01T07:09:32;6.60;;;4.32;;
47531;SDS011;33273;52.254;7.988;2023-04-01T07:15:26;5.60;;;3.88;;
47531;SDS011;33273;52.254;7.988;2023-04-01T07:18:02;6.05;;;4.05;;
47531;SDS011;33273;52.254;7.988;2023-04-01T07:20:33;6.13;;;3.95;;
47531;SDS011;33273;52.254;7.988;2023-04-01T07:23:06;5.68;;;4.35;;
47531;SDS011;33273;52.254;7.988;2023-04-01T07:25:52;5.43;;;3.85;;
47531;SDS011;33273;52.254;7.988;2023-04-01T07:28:31;5.53;;;3.53;;
47531;SDS011;33273;52.254;7.988;2023-04-01T07:39:37;6.20;;;3.63;;
47531;SDS011;33273;52.254;7.988;2023-04-01T07:50:27;4.68;;;3.28;;
47531;SDS011;33273;52.254;7.988;2023-04-01T07:58:24;4.80;;;3.30;;
47531;SDS011;33273;52.254;7.988;2023-04-01T08:01:05;4.93;;;2.97;;
47531;SDS011;33273;52.254;7.988;2023-04-01T08:07:17;5.03;;;3.22;;
47531;SDS011;33273;52.254;7.988;2023-04-01T08:10:18;4.35;;;3.05;;
47531;SDS011;33273;52.254;7.988;2023-04-01T08:16:39;4.30;;;2.72;;
47531;SDS011;33273;52.254;7.988;2023-04-01T08:21:57;4.10;;;3.00;;
47531;SDS011;33273;52.254;7.988;2023-04-01T08:24:34;5.28;;;2.50;;
47531;SDS011;33273;52.254;7.988;2023-04-01T08:27:17;3.60;;;2.45;;
47531;SDS011;33273;52.254;7.988;2023-04-01T08:30:21;3.05;;;2.10;;
47531;SDS011;33273;52.254;7.988;2023-04-01T08:32:58;3.10;;;2.17;;
47531;SDS011;33273;52.254;7.988;2023-04-01T08:35:42;2.58;;;1.92;;
47531;SDS011;33273;52.254;7.988;2023-04-01T08:38:24;1.95;;;1.60;;
47531;SDS011;33273;52.254;7.988;2023-04-01T08:58:51;3.70;;;2.70;;
47531;SDS011;33273;52.254;7.988;2023-04-01T09:07:45;7.10;;;3.55;;
47531;SDS011;33273;52.254;7.988;2023-04-01T09:35:43;7.78;;;4.15;;
47531;SDS011;33273;52.254;7.988;2023-04-01T09:46:23;4.70;;;3.60;;
47531;SDS011;33273;52.254;7.988;2023-04-01T09:52:03;4.80;;;3.33;;
47531;SDS011;33273;52.254;7.988;2023-04-01T10:17:46;6.80;;;5.25;;
47531;SDS011;33273;52.254;7.988;2023-04-01T10:40:57;7.00;;;3.75;;
47531;SDS011;33273;52.254;7.988;2023-04-01T10:44:59;6.93;;;3.97;;
47531;SDS011;33273;52.254;7.988;2023-04-01T10:50:15;4.10;;;3.30;;
47531;SDS011;33273;52.254;7.988;2023-04-01T11:05:42;4.10;;;2.83;;
47531;SDS011;33273;52.254;7.988;2023-04-01T11:20:14;5.38;;;2.92;;
47531;SDS011;33273;52.254;7.988;2023-04-01T11:25:36;6.40;;;3.60;;
47531;SDS011;33273;52.254;7.988;2023-04-01T11:43:18;4.47;;;3.05;;
47531;SDS011;33273;52.254;7.988;2023-04-01T11:46:36;4.93;;;3.30;;
47531;SDS011;33273;52.254;7.988;2023-04-01T11:52:32;3.88;;;2.97;;
47531;SDS011;33273;52.254;7.988;2023-04-01T12:06:42;4.05;;;2.80;;
47531;SDS011;33273;52.254;7.988;2023-04-01T12:09:40;4.53;;;3.15;;
47531;SDS011;33273;52.254;7.988;2023-04-01T12:12:38;5.05;;;3.53;;
47531;SDS011;33273;52.254;7.988;2023-04-01T12:28:45;5.00;;;3.47;;
47531;SDS011;33273;52.254;7.988;2023-04-01T12:31:32;5.18;;;3.40;;
47531;SDS011;33273;52.254;7.988;2023-04-01T13:13:05;6.03;;;4.28;;
47531;SDS011;33273;52.254;7.988;2023-04-01T13:16:08;5.25;;;3.85;;
47531;SDS011;33273;52.254;7.988;2023-04-01T13:21:30;4.78;;;2.75;;
47531;SDS011;33273;52.254;7.988;2023-04-01T13:41:24;4.20;;;2.63;;
47531;SDS011;33273;52.254;7.988;2023-04-01T14:24:07;4.50;;;2.20;;
47531;SDS011;33273;52.254;7.988;2023-04-01T14:27:17;4.78;;;2.55;;
47531;SDS011;33273;52.254;7.988;2023-04-01T14:35:23;3.80;;;1.85;;
47531;SDS011;33273;52.254;7.988;2023-04-01T14:38:24;1.63;;;1.27;;
47531;SDS011;33273;52.254;7.988;2023-04-01T14:41:06;2.40;;;1.45;;
47531;SDS011;33273;52.254;7.988;2023-04-01T14:49:04;2.20;;;1.60;;
47531;SDS011;33273;52.254;7.988;2023-04-01T14:51:41;2.63;;;1.88;;
47531;SDS011;33273;52.254;7.988;2023-04-01T14:56:44;2.55;;;1.67;;
47531;SDS011;33273;52.254;7.988;2023-04-01T15:01:50;2.70;;;1.80;;
47531;SDS011;33273;52.254;7.988;2023-04-01T15:04:40;2.28;;;1.58;;
47531;SDS011;33273;52.254;7.988;2023-04-01T15:07:34;2.47;;;1.80;;
47531;SDS011;33273;52.254;7.988;2023-04-01T15:13:51;3.03;;;1.77;;
47531;SDS011;33273;52.254;7.988;2023-04-01T15:21:15;3.40;;;2.20;;
47531;SDS011;33273;52.254;7.988;2023-04-01T15:23:46;2.85;;;2.20;;
47531;SDS011;33273;52.254;7.988;2023-04-01T15:26:28;3.22;;;2.50;;
47531;SDS011;33273;52.254;7.988;2023-04-01T15:37:28;2.58;;;1.60;;
47531;SDS011;33273;52.254;7.988;2023-04-01T15:40:22;2.58;;;1.67;;
47531;SDS011;33273;52.254;7.988;2023-04-01T15:43:14;2.65;;;1.67;;
47531;SDS011;33273;52.254;7.988;2023-04-01T16:11:11;1.48;;;1.23;;
47531;SDS011;33273;52.254;7.988;2023-04-01T16:19:36;1.67;;;1.33;;
47531;SDS011;33273;52.254;7.988;2023-04-01T16:38:53;2.33;;;1.52;;
47531;SDS011;33273;52.254;7.988;2023-04-01T16:41:47;2.03;;;1.42;;
47531;SDS011;33273;52.254;7.988;2023-04-01T16:44:19;2.92;;;1.90;;
47531;SDS011;33273;52.254;7.988;2023-04-01T16:46:50;10.75;;;7.53;;
47531;SDS011;33273;52.254;7.988;2023-04-01T16:57:30;2.45;;;1.80;;
47531;SDS011;33273;52.254;7.988;2023-04-01T17:00:28;2.58;;;1.60;;
47531;SDS011;33273;52.254;7.988;2023-04-01T17:08:39;2.30;;;1.50;;
47531;SDS011;33273;52.254;7.988;2023-04-01T17:11:18;3.28;;;1.83;;
47531;SDS011;33273;52.254;7.988;2023-04-01T17:24:54;2.50;;;1.73;;
47531;SDS011;33273;52.254;7.988;2023-04-01T17:42:27;2.65;;;1.70;;
47531;SDS011;33273;52.254;7.988;2023-04-01T17:53:47;2.60;;;1.65;;
47531;SDS011;33273;52.254;7.988;2023-04-01T17:58:17;3.28;;;2.10;;
47531;SDS011;33273;52.254;7.988;2023-04-01T18:21:00;2.75;;;1.92;;
47531;SDS011;33273;52.254;7.988;2023-04-01T18:26:43;3.40;;;2.10;;
47531;SDS011;33273;52.254;7.988;2023-04-01T18:46:19;4.25;;;2.38;;
47531;SDS011;33273;52.254;7.988;2023-04-01T18:51:59;3.78;;;2.60;;
47531;SDS011;33273;52.254;7.988;2023-04-01T18:54:41;4.25;;;2.90;;
47531;SDS011;33273;52.254;7.988;2023-04-01T18:57:18;4.05;;;3.00;;
47531;SDS011;33273;52.254;7.988;2023-04-01T18:59:46;4.28;;;2.97;;
47531;SDS011;33273;52.254;7.988;2023-04-01T19:02:36;5.05;;;3.20;;
47531;SDS011;33273;52.254;7.988;2023-04-01T19:05:20;4.45;;;3.15;;
47531;SDS011;33273;52.254;7.988;2023-04-01T19:08:42;4.15;;;2.67;;
47531;SDS011;33273;52.254;7.988;2023-04-01T19:22:18;3.50;;;2.25;;
47531;SDS011;33273;52.254;7.988;2023-04-01T19:28:01;4.35;;;2.92;;
47531;SDS011;33273;52.254;7.988;2023-04-01T19:36:22;4.28;;;2.92;;
47531;SDS011;33273;52.254;7.988;2023-04-01T19:42:11;6.22;;;2.88;;
47531;SDS011;33273;52.254;7.988;2023-04-01T19:53:13;4.47;;;2.70;;
47531;SDS011;33273;52.254;7.988;2023-04-01T20:02:14;4.18;;;2.60;;
47531;SDS011;33273;52.254;7.988;2023-04-01T20:04:38;3.25;;;2.40;;
47531;SDS011;33273;52.254;7.988;2023-04-01T20:10:08;3.85;;;2.63;;
47531;SDS011;33273;52.254;7.988;2023-04-01T20:15:35;3.03;;;2.35;;
47531;SDS011;33273;52.254;7.988;2023-04-01T20:18:21;3.13;;;2.40;;
47531;SDS011;33273;52.254;7.988;2023-04-01T20:20:57;2.92;;;2.13;;
47531;SDS011;33273;52.254;7.988;2023-04-01T20:23:43;3.30;;;2.30;;
47531;SDS011;33273;52.254;7.988;2023-04-01T20:26:21;4.28;;;2.38;;
47531;SDS011;33273;52.254;7.988;2023-04-01T20:40:46;4.13;;;2.58;;
47531;SDS011;33273;52.254;7.988;2023-04-01T20:46:19;3.15;;;2.22;;
47531;SDS011;33273;52.254;7.988;2023-04-01T20:55:26;4.82;;;2.25;;
47531;SDS011;33273;52.254;7.988;2023-04-01T21:00:57;2.80;;;1.88;;
47531;SDS011;33273;52.254;7.988;2023-04-01T21:03:45;2.92;;;1.92;;
47531;SDS011;33273;52.254;7.988;2023-04-01T21:09:07;2.97;;;2.10;;
47531;SDS011;33273;52.254;7.988;2023-04-01T21:14:34;2.80;;;1.90;;
47531;SDS011;33273;52.254;7.988;2023-04-01T22:07:13;4.97;;;2.67;;
47531;SDS011;33273;52.254;7.988;2023-04-01T22:15:11;5.57;;;3.67;;
47531;SDS011;33273;52.254;7.988;2023-04-01T22:18:09;5.53;;;3.17;;
47531;SDS011;33273;52.254;7.988;2023-04-01T22:20:50;4.53;;;3.10;;
47531;SDS011;33273;52.254;7.988;2023-04-01T22:26:13;5.05;;;3.42;;
47531;SDS011;33273;52.254;7.988;2023-04-01T22:31:27;4.93;;;3.00;;
47531;SDS011;33273;52.254;7.988;2023-04-01T22:34:14;4.53;;;2.85;;
47531;SDS011;33273;52.254;7.988;2023-04-01T22:42:31;5.00;;;3.25;;
47531;SDS011;33273;52.254;7.988;2023-04-01T22:47:44;4.15;;;3.20;;
47531;SDS011;33273;52.254;7.988;2023-04-01T22:50:40;5.60;;;3.60;;
47531;SDS011;33273;52.254;7.988;2023-04-01T22:55:59;6.53;;;4.28;;
47531;SDS011;33273;52.254;7.988;2023-04-01T22:58:32;6.25;;;3.83;;
47531;SDS011;33273;52.254;7.988;2023-04-01T23:01:05;7.43;;;4.22;;
47531;SDS011;33273;52.254;7.988;2023-04-01T23:03:37;7.07;;;4.93;;
47531;SDS011;33273;52.254;7.988;2023-04-01T23:06:06;10.32;;;5.07;;
47531;SDS011;33273;52.254;7.988;2023-04-01T23:17:05;6.28;;;4.50;;
47531;SDS011;33273;52.254;7.988;2023-04-01T23:19:46;6.38;;;3.63;;
47531;SDS011;33273;52.254;7.988;2023-04-01T23:31:02;5.75;;;3.88;;
47531;SDS011;33273;52.254;7.988;2023-04-01T23:33:29;8.47;;;4.73;;
47531;SDS011;33273;52.254;7.988;2023-04-01T23:38:37;7.03;;;4.47;;
47531;SDS011;33273;52.254;7.988;2023-04-01T23:41:07;6.15;;;4.38;;
47531;SDS011;33273;52.254;7.988;2023-04-01T23:43:48;10.10;;;5.72;;
47531;SDS011;33273;52.254;7.988;2023-04-01T23:46:44;8.40;;;5.13;;
47531;SDS011;33273;52.254;7.988;2023-04-01T23:49:12;9.48;;;5.38;;
47531;SDS011;33273;52.254;7.988;2023-04-01T23:51:56;7.18;;;4.68;;
47531;SDS011;33273;52.254;7.988;2023-04-01T23:54:30;8.50;;;5.00;;
47531;SDS011;33273;52.254;7.988;2023-04-01T23:57:09;8.43;;;5.90;;
47531;SDS011;33273;52.254;7.988;2023-04-01T23:59:38;9.00;;;5.38;;
